createdAt,value
2018-06-13T10:16:42.544Z,53.52
2018-06-13T10:19:11.227Z,52.66
2018-06-13T10:21:39.927Z,51.29
2018-06-13T10:24:08.660Z,52.33
2018-06-13T10:26:37.396Z,50.15
2018-06-13T10:29:06.120Z,47.04
2018-06-13T10:31:34.820Z,46.89
2018-06-13T10:34:03.539Z,46.21
2018-06-13T10:36:32.344Z,48.41
2018-06-13T10:39:01.121Z,48.59
2018-06-13T10:41:29.768Z,44.85
2018-06-13T10:43:58.501Z,44.06
2018-06-13T10:46:27.204Z,44.20
2018-06-13T10:48:55.910Z,44.03
2018-06-13T10:51:24.603Z,42.60
2018-06-13T10:53:53.268Z,41.45
2018-06-13T10:56:22.024Z,43.13
2018-06-13T10:58:50.725Z,42.06
2018-06-13T11:01:19.338Z,43.40
2018-06-13T11:03:48.894Z,43.39
2018-06-13T11:06:17.612Z,44.18
2018-06-13T11:08:46.310Z,43.06
2018-06-13T11:11:15.049Z,41.36
2018-06-13T11:13:43.730Z,43.72
2018-06-13T11:16:12.398Z,42.51
2018-06-13T11:18:41.078Z,43.60
2018-06-13T11:21:09.790Z,43.02
2018-06-13T11:23:38.489Z,43.18
2018-06-13T11:26:07.259Z,44.10
2018-06-13T11:29:23.928Z,44.74
2018-06-13T11:33:45.798Z,44.94
2018-06-13T11:41:07.879Z,46.13
2018-06-13T11:43:36.573Z,47.11
2018-06-13T11:46:05.317Z,48.49
2018-06-13T11:48:34.103Z,50.14
2018-06-13T11:51:02.813Z,50.14
2018-06-13T11:53:31.869Z,49.91
2018-06-13T11:56:00.550Z,50.83
2018-06-13T11:58:30.510Z,52.56
2018-06-13T12:00:59.247Z,54.16
2018-06-13T12:03:28.054Z,54.00
2018-06-13T12:05:56.818Z,54.25
2018-06-13T12:08:25.868Z,54.91
2018-06-13T12:10:54.618Z,54.94
2018-06-13T12:13:23.285Z,54.47
2018-06-13T12:15:52.002Z,55.23
2018-06-13T12:18:20.769Z,55.89
2018-06-13T12:20:50.148Z,57.01
2018-06-13T12:23:18.892Z,57.58
2018-06-13T12:25:48.070Z,58.05
2018-06-13T12:28:16.769Z,58.82
2018-06-13T12:30:46.021Z,60.08
2018-06-13T12:33:15.150Z,60.06
2018-06-13T12:35:43.855Z,60.23
2018-06-13T12:38:13.098Z,59.21
2018-06-13T12:40:41.812Z,58.31
2018-06-13T12:43:33.095Z,58.88
2018-06-13T12:46:01.813Z,59.91
2018-06-13T12:48:30.509Z,59.66
2018-06-13T12:50:59.201Z,56.32
2018-06-13T12:53:27.927Z,54.32
2018-06-13T12:55:56.595Z,54.19
2018-06-13T12:58:25.386Z,54.80
2018-06-13T13:00:54.294Z,54.48
2018-06-13T13:03:23.395Z,52.49
2018-06-13T13:05:52.128Z,53.86
2018-06-13T13:08:20.799Z,53.30
2018-06-13T13:10:49.479Z,53.16
2018-06-13T13:13:18.153Z,53.08
2018-06-13T13:15:47.015Z,53.66
2018-06-13T13:18:15.779Z,54.12
2018-06-13T13:20:44.474Z,55.50
2018-06-13T13:23:13.188Z,55.30
2018-06-13T13:25:41.858Z,54.64
2018-06-13T13:28:10.523Z,54.36
2018-06-13T13:30:39.215Z,53.62
2018-06-13T13:33:07.864Z,53.81
2018-06-13T13:35:36.597Z,55.37
2018-06-13T13:38:05.394Z,54.78
2018-06-13T13:40:34.129Z,53.21
2018-06-13T13:43:03.816Z,51.75
2018-06-13T13:45:32.568Z,49.19
2018-06-13T13:48:01.188Z,49.91
2018-06-13T13:50:29.867Z,46.06
2018-06-13T13:52:58.530Z,46.38
2018-06-13T13:55:27.326Z,45.46
2018-06-13T13:57:56.030Z,45.88
2018-06-13T14:00:24.745Z,45.40
2018-06-13T14:02:53.455Z,46.16
2018-06-13T14:05:22.237Z,47.32
2018-06-13T14:07:50.974Z,48.08
2018-06-13T14:10:19.614Z,49.00
2018-06-13T14:12:48.367Z,50.64
2018-06-13T14:15:17.022Z,51.82
2018-06-13T14:17:45.650Z,52.04
2018-06-13T14:20:14.440Z,51.13
2018-06-13T14:22:43.127Z,52.28
2018-06-13T14:25:12.349Z,52.89
2018-06-13T14:27:41.387Z,54.12
2018-06-13T14:30:10.215Z,53.44
2018-06-13T14:32:38.918Z,54.27
2018-06-13T14:35:07.637Z,53.00
2018-06-13T14:37:36.335Z,53.36
2018-06-13T14:40:05.220Z,52.53
2018-06-13T14:42:33.990Z,52.73
2018-06-13T14:45:02.695Z,53.48
2018-06-13T14:47:31.354Z,54.18
2018-06-13T14:50:00.072Z,54.19
2018-06-13T14:52:28.728Z,54.73
2018-06-13T14:54:57.410Z,55.54
2018-06-13T14:57:26.127Z,55.70
2018-06-13T14:59:54.805Z,55.24
2018-06-13T15:02:23.701Z,56.24
2018-06-13T15:04:52.418Z,55.54
2018-06-13T15:07:21.115Z,56.20
2018-06-13T15:09:49.770Z,56.16
2018-06-13T15:12:18.481Z,56.20
2018-06-13T15:14:47.167Z,56.65
2018-06-13T15:17:37.357Z,56.07
2018-06-13T15:20:06.102Z,56.72
2018-06-13T15:22:34.801Z,57.19
2018-06-13T15:25:03.512Z,56.48
2018-06-13T15:27:32.235Z,56.67
2018-06-13T15:30:01.028Z,56.73
2018-06-13T15:32:29.666Z,55.85
2018-06-13T15:34:58.324Z,55.59
2018-06-13T15:37:26.989Z,55.97
2018-06-13T15:39:55.710Z,56.53
2018-06-13T15:42:24.434Z,56.42
2018-06-13T15:44:53.219Z,56.91
2018-06-13T15:47:21.910Z,56.81
2018-06-13T15:49:50.597Z,56.80
2018-06-13T15:52:19.214Z,56.28
2018-06-13T15:54:47.884Z,56.56
2018-06-13T15:57:16.540Z,57.88
2018-06-13T15:59:45.785Z,57.59
2018-06-13T16:02:14.467Z,58.68
2018-06-13T16:04:43.305Z,58.63
2018-06-13T16:07:11.941Z,58.40
2018-06-13T16:09:40.594Z,59.04
2018-06-13T16:12:09.373Z,58.85
2018-06-13T16:14:38.099Z,58.85
2018-06-13T16:17:06.812Z,58.80
2018-06-13T16:19:35.542Z,58.15
2018-06-13T16:22:04.454Z,58.31
2018-06-13T16:24:33.409Z,60.56
2018-06-13T16:27:02.073Z,61.77
2018-06-13T16:29:31.176Z,61.77
2018-06-13T16:32:00.139Z,62.25
2018-06-13T16:34:28.903Z,62.52
2018-06-13T16:39:26.146Z,51.27
2018-06-13T16:41:54.807Z,51.94
2018-06-13T16:44:23.798Z,54.49
2018-06-13T16:46:52.411Z,58.47
2018-06-13T16:49:21.039Z,63.07
2018-06-13T16:51:54.334Z,69.83
2018-06-13T16:54:34.129Z,72.23
2018-06-13T16:57:02.900Z,67.68
2018-06-13T16:59:31.616Z,72.30
2018-06-13T17:02:00.391Z,68.59
2018-06-13T17:04:29.043Z,70.05
2018-06-13T17:06:57.768Z,68.35
2018-06-13T17:09:26.480Z,66.98
2018-06-13T17:11:55.126Z,68.54
2018-06-13T17:14:23.924Z,69.66
2018-06-13T17:16:52.634Z,71.84
2018-06-13T17:19:21.331Z,77.83
2018-06-13T17:21:50.127Z,73.49
2018-06-13T17:24:18.863Z,76.74
2018-06-13T17:26:47.668Z,77.25
2018-06-13T17:29:16.314Z,77.42
2018-06-13T17:31:45.038Z,78.38
2018-06-13T17:34:13.727Z,80.47
2018-06-13T17:36:42.464Z,79.29
2018-06-13T17:39:11.699Z,78.54
2018-06-13T17:41:40.518Z,78.28
2018-06-13T17:44:09.270Z,78.21
2018-06-13T17:46:37.997Z,80.13
2018-06-13T17:49:06.786Z,79.56
2018-06-13T17:52:30.669Z,80.68
2018-06-13T17:54:59.298Z,78.74
2018-06-13T17:57:27.978Z,81.40
2018-06-13T17:59:56.613Z,78.24
2018-06-13T18:02:25.361Z,80.78
2018-06-13T18:04:54.064Z,81.29
2018-06-13T18:07:22.754Z,80.16
2018-06-13T18:09:51.510Z,82.36
2018-06-13T18:12:20.338Z,81.72
2018-06-13T18:14:49.743Z,81.71
2018-06-13T18:17:18.502Z,79.95
2018-06-13T18:19:47.235Z,80.50
2018-06-13T18:22:15.938Z,81.10
2018-06-13T18:24:44.627Z,80.59
2018-06-13T18:27:13.348Z,79.12
2018-06-13T18:29:42.211Z,79.26
2018-06-13T18:32:10.991Z,79.13
2018-06-13T18:34:39.681Z,80.85
2018-06-13T18:37:08.385Z,80.12
2018-06-13T18:39:37.061Z,80.28
2018-06-13T18:42:05.778Z,80.03
2018-06-13T18:44:34.467Z,79.60
2018-06-13T18:47:03.783Z,79.99
2018-06-13T18:49:32.493Z,81.82
2018-06-13T18:52:01.877Z,82.13
2018-06-13T18:54:31.010Z,82.18
2018-06-13T18:56:59.808Z,83.46
2018-06-13T18:59:28.488Z,83.99
2018-06-13T19:01:57.581Z,82.74
2018-06-13T19:04:26.280Z,81.65
2018-06-13T19:06:56.399Z,82.64
2018-06-13T19:09:25.155Z,83.53
2018-06-13T19:11:53.883Z,84.34
2018-06-13T19:14:22.689Z,83.17
2018-06-13T19:16:51.400Z,81.19
2018-06-13T19:19:20.708Z,82.29
2018-06-13T19:21:49.438Z,81.40
2018-06-13T19:24:18.816Z,79.00
2018-06-13T19:26:47.443Z,78.54
2018-06-13T19:29:16.182Z,78.79
2018-06-13T19:31:44.948Z,79.07
2018-06-13T19:34:13.655Z,79.33
2018-06-13T19:36:42.431Z,80.75
2018-06-13T19:39:11.475Z,80.40
2018-06-13T19:41:40.176Z,80.70
2018-06-13T19:44:08.803Z,79.88
2018-06-13T19:46:37.499Z,80.71
2018-06-13T19:49:06.199Z,80.54
2018-06-13T19:51:34.866Z,80.73
2018-06-13T19:56:11.045Z,79.34
2018-06-13T19:58:40.298Z,77.41
2018-06-13T20:01:09.055Z,80.66
2018-06-13T20:03:42.955Z,80.80
2018-06-13T20:06:12.007Z,80.38
2018-06-13T20:08:40.711Z,80.21
2018-06-13T20:11:09.520Z,79.86
2018-06-13T20:13:43.329Z,80.24
2018-06-13T20:16:17.211Z,79.96
2018-06-13T20:18:51.073Z,79.77
2018-06-13T20:21:19.717Z,79.17
2018-06-13T20:23:48.363Z,79.23
2018-06-13T20:26:22.220Z,79.66
2018-06-13T20:28:56.027Z,79.34
2018-06-13T20:31:27.162Z,80.82
2018-06-13T20:33:55.713Z,78.65
2018-06-13T20:36:24.773Z,78.75
2018-06-13T20:38:53.430Z,79.65
2018-06-13T20:41:22.822Z,78.77
2018-06-13T20:43:51.560Z,78.82
2018-06-13T20:46:20.266Z,81.39
2018-06-13T20:48:48.983Z,79.27
2018-06-13T20:51:17.735Z,77.96
2018-06-13T20:53:46.446Z,79.09
2018-06-13T20:56:16.003Z,78.69
2018-06-13T20:58:44.819Z,79.68
2018-06-13T21:01:13.487Z,79.72
2018-06-13T21:03:42.223Z,78.71
2018-06-13T21:06:10.927Z,78.88
2018-06-13T21:08:39.553Z,78.98
2018-06-13T21:11:08.207Z,78.73
2018-06-13T21:13:36.869Z,80.62
2018-06-13T21:16:05.641Z,81.82
2018-06-13T21:18:34.360Z,82.48
2018-06-13T21:21:02.971Z,82.23
2018-06-13T21:23:31.639Z,82.84
2018-06-13T21:26:00.345Z,82.10
2018-06-13T21:28:29.005Z,82.44
2018-06-13T21:30:57.893Z,82.81
2018-06-13T21:33:26.549Z,82.08
2018-06-13T21:35:55.236Z,82.70
2018-06-13T21:38:23.905Z,82.79
2018-06-13T21:40:52.622Z,81.80
2018-06-13T21:43:21.308Z,81.80
2018-06-13T21:45:50.052Z,81.59
2018-06-13T21:48:18.764Z,80.55
2018-06-13T21:50:47.491Z,81.81
2018-06-13T21:53:16.718Z,81.25
2018-06-13T21:55:45.404Z,80.58
2018-06-13T21:58:16.280Z,80.58
2018-06-13T22:00:45.002Z,79.78
2018-06-13T22:03:13.715Z,79.46
2018-06-13T22:05:43.400Z,79.40
2018-06-13T22:08:12.171Z,79.06
2018-06-13T22:10:40.907Z,79.65
2018-06-13T22:13:09.602Z,79.76
2018-06-13T22:15:38.318Z,80.18
2018-06-13T22:18:07.020Z,80.63
2018-06-13T22:20:35.664Z,80.03
2018-06-13T22:23:04.390Z,80.05
2018-06-13T22:25:33.088Z,80.97
2018-06-13T22:28:01.749Z,80.41
2018-06-13T22:30:30.406Z,80.97
2018-06-13T22:32:59.063Z,80.25
2018-06-13T22:35:27.704Z,81.29
2018-06-13T22:37:56.471Z,82.03
2018-06-13T22:40:25.126Z,81.99
2018-06-13T22:42:53.853Z,81.68
2018-06-13T22:45:22.511Z,81.91
2018-06-13T22:47:51.175Z,82.53
2018-06-13T22:50:19.870Z,82.55
2018-06-13T22:52:48.573Z,82.33
2018-06-13T22:55:17.245Z,82.56
2018-06-13T22:57:45.966Z,82.04
2018-06-13T23:00:17.481Z,82.40
2018-06-13T23:02:46.218Z,81.80
2018-06-13T23:05:14.887Z,82.23
2018-06-13T23:07:43.580Z,82.51
2018-06-13T23:10:12.232Z,81.49
2018-06-13T23:12:40.930Z,81.42
2018-06-13T23:16:38.963Z,80.73
2018-06-13T23:19:07.610Z,78.68
2018-06-13T23:21:36.260Z,78.95
2018-06-13T23:24:04.912Z,79.87
2018-06-13T23:26:33.646Z,82.09
2018-06-13T23:29:02.328Z,82.00
2018-06-13T23:31:31.008Z,81.91
2018-06-13T23:33:59.758Z,81.52
2018-06-13T23:36:28.414Z,81.74
2018-06-13T23:38:57.092Z,81.46
2018-06-13T23:41:25.770Z,81.79
2018-06-13T23:43:54.464Z,80.72
2018-06-13T23:46:23.126Z,80.40
2018-06-13T23:48:51.866Z,80.96
2018-06-13T23:51:20.497Z,80.23
2018-06-13T23:53:49.189Z,81.04
2018-06-13T23:56:17.855Z,81.01
2018-06-13T23:58:46.535Z,81.01
